Portada
METAR-TAF:

METAR-TAF

Aeroports :

El Palmar

Santa Ana, El Salvador

latitud: 13-59N, longitud: 089-34W, altitud: 725 m

Observació

L'informe es va fer fa 1 hora i 9 minuts, a les 16:50 UTC
Vent 4 kt del Oest
Temperatura 31°C
Humitat 36%
Pressió 1023 hPa
Visibilitat 10 km o més
sense núvols per sota de 1500 mi sense presència de cumulonimbus.

METAR: MSSA 271650Z 28004KT CAVOK 31/14 Q1022 A3020

Hora: 11:59 (17:59 UTC)


TAF: manca

Observacions i pronòstics meteorològics de més de 4000 aeroports (METAR i TAF).

Les estacions disponibles són els punts grocs i vermells al mapa.

Posi el ratolí al punt desitjat per veure el nom de l'estació.

Feu clic per veure les observacions i els pronòstics meteorològics.

Per canviar el mapa: feu clic els botons verds amb una creu de color negre per apropar; al botó verd amb un guió per allunyar la imatge; o en les fletxes verdes per a mapes adjacents.


METAR-TAF: